sensor_id;sensor_type;location;lat;lon;timestamp;P1;durP1;ratioP1;P2;durP2;ratioP2
63581;SDS011;49727;51.078;17.066;2023-09-12T00:11:09;13.25;;;10.90;;
63581;SDS011;49727;51.078;17.066;2023-09-12T00:26:11;15.77;;;10.87;;
63581;SDS011;49727;51.078;17.066;2023-09-12T00:41:11;13.20;;;10.95;;
63581;SDS011;49727;51.078;17.066;2023-09-12T00:56:11;13.75;;;11.10;;
63581;SDS011;49727;51.078;17.066;2023-09-12T01:11:12;14.55;;;11.80;;
63581;SDS011;49727;51.078;17.066;2023-09-12T01:26:17;15.40;;;12.20;;
63581;SDS011;49727;51.078;17.066;2023-09-12T01:41:18;17.58;;;12.55;;
63581;SDS011;49727;51.078;17.066;2023-09-12T01:56:19;19.73;;;12.95;;
63581;SDS011;49727;51.078;17.066;2023-09-12T02:11:21;18.03;;;13.67;;
63581;SDS011;49727;51.078;17.066;2023-09-12T02:26:21;17.30;;;13.45;;
63581;SDS011;49727;51.078;17.066;2023-09-12T02:41:21;18.42;;;13.15;;
63581;SDS011;49727;51.078;17.066;2023-09-12T02:56:22;21.90;;;13.65;;
63581;SDS011;49727;51.078;17.066;2023-09-12T03:11:22;19.10;;;11.80;;
63581;SDS011;49727;51.078;17.066;2023-09-12T03:26:23;20.48;;;12.52;;
63581;SDS011;49727;51.078;17.066;2023-09-12T03:41:23;18.00;;;12.43;;
63581;SDS011;49727;51.078;17.066;2023-09-12T03:56:25;26.97;;;15.33;;
63581;SDS011;49727;51.078;17.066;2023-09-12T04:11:26;18.17;;;12.25;;
63581;SDS011;49727;51.078;17.066;2023-09-12T04:26:26;20.70;;;12.68;;
63581;SDS011;49727;51.078;17.066;2023-09-12T04:41:26;23.30;;;14.25;;
63581;SDS011;49727;51.078;17.066;2023-09-12T04:56:27;22.15;;;13.43;;
63581;SDS011;49727;51.078;17.066;2023-09-12T05:11:27;15.45;;;12.48;;
63581;SDS011;49727;51.078;17.066;2023-09-12T05:26:27;24.65;;;13.45;;
63581;SDS011;49727;51.078;17.066;2023-09-12T05:41:28;21.13;;;13.93;;
63581;SDS011;49727;51.078;17.066;2023-09-12T05:56:28;24.20;;;13.27;;
63581;SDS011;49727;51.078;17.066;2023-09-12T06:11:29;19.05;;;12.15;;
63581;SDS011;49727;51.078;17.066;2023-09-12T06:26:29;13.80;;;11.32;;
63581;SDS011;49727;51.078;17.066;2023-09-12T06:41:29;14.35;;;12.63;;
63581;SDS011;49727;51.078;17.066;2023-09-12T06:56:30;15.98;;;11.25;;
63581;SDS011;49727;51.078;17.066;2023-09-12T07:11:30;16.07;;;9.73;;
63581;SDS011;49727;51.078;17.066;2023-09-12T07:26:30;15.20;;;10.50;;
63581;SDS011;49727;51.078;17.066;2023-09-12T07:41:31;14.65;;;10.07;;
63581;SDS011;49727;51.078;17.066;2023-09-12T07:56:31;12.75;;;8.65;;
63581;SDS011;49727;51.078;17.066;2023-09-12T08:11:31;11.98;;;8.48;;
63581;SDS011;49727;51.078;17.066;2023-09-12T08:26:32;13.50;;;9.02;;
63581;SDS011;49727;51.078;17.066;2023-09-12T08:41:32;16.77;;;8.77;;
63581;SDS011;49727;51.078;17.066;2023-09-12T08:56:34;9.07;;;7.37;;
63581;SDS011;49727;51.078;17.066;2023-09-12T09:11:36;8.97;;;6.47;;
63581;SDS011;49727;51.078;17.066;2023-09-12T09:26:43;12.05;;;6.45;;
63581;SDS011;49727;51.078;17.066;2023-09-12T09:41:48;10.13;;;5.40;;
63581;SDS011;49727;51.078;17.066;2023-09-12T09:56:54;5.93;;;5.33;;
63581;SDS011;49727;51.078;17.066;2023-09-12T10:11:55;5.20;;;4.70;;
63581;SDS011;49727;51.078;17.066;2023-09-12T10:26:57;7.77;;;4.53;;
63581;SDS011;49727;51.078;17.066;2023-09-12T10:42:00;6.00;;;3.57;;
63581;SDS011;49727;51.078;17.066;2023-09-12T10:57:14;5.93;;;3.40;;
63581;SDS011;49727;51.078;17.066;2023-09-12T11:12:33;8.50;;;3.87;;
63581;SDS011;49727;51.078;17.066;2023-09-12T11:27:45;5.77;;;3.60;;
63581;SDS011;49727;51.078;17.066;2023-09-12T11:42:52;5.57;;;3.87;;
63581;SDS011;49727;51.078;17.066;2023-09-12T11:57:52;6.20;;;3.60;;
63581;SDS011;49727;51.078;17.066;2023-09-12T12:12:53;8.23;;;4.07;;
63581;SDS011;49727;51.078;17.066;2023-09-12T12:27:54;10.43;;;4.72;;
63581;SDS011;49727;51.078;17.066;2023-09-12T12:42:54;10.00;;;5.07;;
63581;SDS011;49727;51.078;17.066;2023-09-12T12:57:55;10.10;;;5.20;;
63581;SDS011;49727;51.078;17.066;2023-09-12T13:12:55;10.35;;;5.55;;
63581;SDS011;49727;51.078;17.066;2023-09-12T13:27:55;11.00;;;5.28;;
63581;SDS011;49727;51.078;17.066;2023-09-12T13:42:56;6.47;;;4.90;;
63581;SDS011;49727;51.078;17.066;2023-09-12T13:57:57;6.47;;;5.60;;
63581;SDS011;49727;51.078;17.066;2023-09-12T14:12:57;7.03;;;5.80;;
63581;SDS011;49727;51.078;17.066;2023-09-12T14:27:57;12.15;;;6.05;;
63581;SDS011;49727;51.078;17.066;2023-09-12T14:42:58;6.82;;;5.80;;
63581;SDS011;49727;51.078;17.066;2023-09-12T14:57:58;5.95;;;5.35;;
63581;SDS011;49727;51.078;17.066;2023-09-12T15:12:58;8.40;;;5.80;;
63581;SDS011;49727;51.078;17.066;2023-09-12T15:27:59;7.50;;;5.72;;
63581;SDS011;49727;51.078;17.066;2023-09-12T15:42:59;9.13;;;6.30;;
63581;SDS011;49727;51.078;17.066;2023-09-12T15:58:00;7.70;;;6.00;;
63581;SDS011;49727;51.078;17.066;2023-09-12T16:13:00;8.73;;;6.25;;
63581;SDS011;49727;51.078;17.066;2023-09-12T16:28:00;11.75;;;7.03;;
63581;SDS011;49727;51.078;17.066;2023-09-12T16:43:00;15.90;;;8.20;;
63581;SDS011;49727;51.078;17.066;2023-09-12T16:58:01;12.38;;;7.30;;
63581;SDS011;49727;51.078;17.066;2023-09-12T17:13:02;14.47;;;8.27;;
63581;SDS011;49727;51.078;17.066;2023-09-12T17:28:03;16.98;;;8.95;;
63581;SDS011;49727;51.078;17.066;2023-09-12T17:43:03;15.98;;;8.68;;
63581;SDS011;49727;51.078;17.066;2023-09-12T17:58:03;12.85;;;8.88;;
63581;SDS011;49727;51.078;17.066;2023-09-12T18:13:04;22.20;;;12.07;;
63581;SDS011;49727;51.078;17.066;2023-09-12T18:28:05;30.52;;;15.88;;
63581;SDS011;49727;51.078;17.066;2023-09-12T18:43:05;35.67;;;15.87;;
63581;SDS011;49727;51.078;17.066;2023-09-12T18:58:07;27.50;;;16.33;;
63581;SDS011;49727;51.078;17.066;2023-09-12T19:13:07;25.92;;;13.82;;
63581;SDS011;49727;51.078;17.066;2023-09-12T19:28:09;23.80;;;15.87;;
63581;SDS011;49727;51.078;17.066;2023-09-12T19:43:10;30.60;;;19.57;;
63581;SDS011;49727;51.078;17.066;2023-09-12T19:58:10;27.67;;;15.77;;
63581;SDS011;49727;51.078;17.066;2023-09-12T20:13:10;21.65;;;13.63;;
63581;SDS011;49727;51.078;17.066;2023-09-12T20:28:11;22.80;;;14.98;;
63581;SDS011;49727;51.078;17.066;2023-09-12T20:43:13;23.75;;;15.90;;
63581;SDS011;49727;51.078;17.066;2023-09-12T20:58:15;21.23;;;13.23;;
63581;SDS011;49727;51.078;17.066;2023-09-12T21:13:16;18.37;;;13.53;;
63581;SDS011;49727;51.078;17.066;2023-09-12T21:28:17;18.67;;;12.33;;
63581;SDS011;49727;51.078;17.066;2023-09-12T21:43:17;20.55;;;13.45;;
63581;SDS011;49727;51.078;17.066;2023-09-12T21:58:18;25.03;;;13.90;;
63581;SDS011;49727;51.078;17.066;2023-09-12T22:13:18;28.07;;;18.47;;
63581;SDS011;49727;51.078;17.066;2023-09-12T22:28:18;18.75;;;13.40;;
63581;SDS011;49727;51.078;17.066;2023-09-12T22:58:20;18.23;;;12.77;;
63581;SDS011;49727;51.078;17.066;2023-09-12T23:13:20;15.70;;;13.93;;
63581;SDS011;49727;51.078;17.066;2023-09-12T23:28:20;17.75;;;13.48;;
63581;SDS011;49727;51.078;17.066;2023-09-12T23:43:20;16.95;;;13.48;;
63581;SDS011;49727;51.078;17.066;2023-09-12T23:58:21;17.67;;;14.32;;
